Fs Philippine — FMDU — position and weather

sailwx.info

Track history (hours):
 
Tides and Currents Weather Stations Pressure Air Temp Water Temp Dewpoint Dewpoint Depression Visibility Wind Speed Wind Dir Waves Ship Positions

Fs Philippine

Last reported at 2014-Sep-26 03:24 UTC. Time now 2014-Sep-30 22:06 UTC.
Position N 36°29' E 023°17'.

Length 139 m; draft 7.9 m.

Type: Ship. MMSI: 228320800.

Date/timePositionNaut miles runAvg speedWind from/ knotsBaromVisibWave heightAir tempDewpointWater temp
2014-Sep-26 03:24N 36°29' E 023°17'1212.4
2014-Sep-26 02:28N 36°39' E 023°25'1412.2
2014-Sep-26 01:21N 36°51' E 023°33'911.7
2014-Sep-26 00:33N 37°00' E 023°36'1211.7
2014-Sep-25 23:33N 37°12' E 023°38'2412.1
2014-Sep-25 21:33N 37°36' E 023°42'1212.2
2014-Sep-25 20:33N 37°47' E 023°38'1312.7
2014-Sep-25 19:33N 37°51' E 023°22'1313.5
2014-Sep-25 18:34N 37°54' E 023°06'1 0.8
2014-Sep-25 17:30N 37°55' E 023°05'0 0.0
2014-Sep-24 22:23N 37°55' E 023°05'0 0.2
2014-Sep-24 21:32N 37°55' E 023°05'1 0.4
2014-Sep-24 17:27N 37°54' E 023°03'0 0.0
2014-Sep-24 16:15N 37°54' E 023°03'0 0.0
2014-Sep-24 15:27N 37°54' E 023°03'0 0.0
2014-Sep-23 07:24N 37°54' E 023°03'0 0.1
2014-Sep-23 06:27N 37°54' E 023°03'7 0.3
2014-Sep-22 04:31N 37°53' E 023°12'1111.5
2014-Sep-22 03:33N 37°51' E 023°26'1110.9
2014-Sep-22 02:33N 37°49' E 023°40'1211.9
2014-Sep-22 01:33N 37°38' E 023°45'1212.2
2014-Sep-22 00:33N 37°26' E 023°43'1312.7
2014-Sep-21 23:32N 37°13' E 023°40'1312.8
2014-Sep-21 22:33N 37°01' E 023°37'1212.2
2014-Sep-21 21:33N 36°49' E 023°32'1212.1
2014-Sep-21 20:33N 36°38' E 023°26'1212.3
2014-Sep-21 19:34N 36°28' E 023°19'1110.7
2014-Sep-21 18:29N 36°23' E 023°06'  
2014-Sep-17 15:33N 35°49' E 014°33'1510.7
2014-Sep-17 14:07N 35°49' E 014°52'0 0.1
2014-Sep-17 13:28N 35°49' E 014°52'0 0.0
2014-Sep-16 20:25N 35°49' E 014°52'0 0.0
2014-Sep-16 18:07N 35°49' E 014°52'0 0.0
2014-Sep-16 17:22N 35°49' E 014°52'0 0.0
2014-Sep-16 06:28N 35°49' E 014°52'0 0.0
2014-Sep-16 04:28N 35°49' E 014°52'0 0.0
2014-Sep-16 03:28N 35°49' E 014°52'  
Track history (hours):
 
Tides and Currents Weather Stations Pressure Air Temp Water Temp Dewpoint Dewpoint Depression Visibility Wind Speed Wind Dir Waves Ship Positions

Fs Philippine

Last reported at 2014-Sep-26 03:24 UTC. Time now 2014-Sep-30 22:06 UTC.
Position N 36°29' E 023°17'.

Length 139 m; draft 7.9 m.

Type: Ship. MMSI: 228320800.

Date/timePositionNaut miles runAvg speedWind from/ knotsBaromVisibWave heightAir tempDewpointWater temp
2014-Sep-26 03:24N 36°29' E 023°17'1212.4
2014-Sep-26 02:28N 36°39' E 023°25'1412.2
2014-Sep-26 01:21N 36°51' E 023°33'911.7
2014-Sep-26 00:33N 37°00' E 023°36'1211.7
2014-Sep-25 23:33N 37°12' E 023°38'2412.1
2014-Sep-25 21:33N 37°36' E 023°42'1212.2
2014-Sep-25 20:33N 37°47' E 023°38'1312.7
2014-Sep-25 19:33N 37°51' E 023°22'1313.5
2014-Sep-25 18:34N 37°54' E 023°06'1 0.8
2014-Sep-25 17:30N 37°55' E 023°05'0 0.0
2014-Sep-24 22:23N 37°55' E 023°05'0 0.2
2014-Sep-24 21:32N 37°55' E 023°05'1 0.4
2014-Sep-24 17:27N 37°54' E 023°03'0 0.0
2014-Sep-24 16:15N 37°54' E 023°03'0 0.0
2014-Sep-24 15:27N 37°54' E 023°03'0 0.0
2014-Sep-23 07:24N 37°54' E 023°03'0 0.1
2014-Sep-23 06:27N 37°54' E 023°03'7 0.3
2014-Sep-22 04:31N 37°53' E 023°12'1111.5
2014-Sep-22 03:33N 37°51' E 023°26'1110.9
2014-Sep-22 02:33N 37°49' E 023°40'1211.9
2014-Sep-22 01:33N 37°38' E 023°45'1212.2
2014-Sep-22 00:33N 37°26' E 023°43'1312.7
2014-Sep-21 23:32N 37°13' E 023°40'1312.8
2014-Sep-21 22:33N 37°01' E 023°37'1212.2
2014-Sep-21 21:33N 36°49' E 023°32'1212.1
2014-Sep-21 20:33N 36°38' E 023°26'1212.3
2014-Sep-21 19:34N 36°28' E 023°19'1110.7
2014-Sep-21 18:29N 36°23' E 023°06'  
2014-Sep-17 15:33N 35°49' E 014°33'1510.7
2014-Sep-17 14:07N 35°49' E 014°52'0 0.1
2014-Sep-17 13:28N 35°49' E 014°52'0 0.0
2014-Sep-16 20:25N 35°49' E 014°52'0 0.0
2014-Sep-16 18:07N 35°49' E 014°52'0 0.0
2014-Sep-16 17:22N 35°49' E 014°52'0 0.0
2014-Sep-16 06:28N 35°49' E 014°52'0 0.0
2014-Sep-16 04:28N 35°49' E 014°52'0 0.0
2014-Sep-16 03:28N 35°49' E 014°52'  

Dump ship's entire track history